sensor_id;sensor_type;location;lat;lon;timestamp;temperature;humidity
18434;DHT22;9344;52.294;13.626;2022-12-07T00:01:33;3.40;99.90
18434;DHT22;9344;52.294;13.626;2022-12-07T00:04:03;3.40;99.90
18434;DHT22;9344;52.294;13.626;2022-12-07T00:06:30;3.30;99.90
18434;DHT22;9344;52.294;13.626;2022-12-07T00:08:57;3.30;99.90
18434;DHT22;9344;52.294;13.626;2022-12-07T00:11:24;3.20;99.90
18434;DHT22;9344;52.294;13.626;2022-12-07T00:13:54;3.30;99.90
18434;DHT22;9344;52.294;13.626;2022-12-07T00:16:23;3.30;99.90
18434;DHT22;9344;52.294;13.626;2022-12-07T00:18:50;3.20;99.90
18434;DHT22;9344;52.294;13.626;2022-12-07T00:21:18;3.20;99.90
18434;DHT22;9344;52.294;13.626;2022-12-07T00:23:46;3.20;99.90
18434;DHT22;9344;52.294;13.626;2022-12-07T00:26:15;3.20;99.90
18434;DHT22;9344;52.294;13.626;2022-12-07T00:28:45;3.20;99.90
18434;DHT22;9344;52.294;13.626;2022-12-07T00:31:15;3.20;99.90
18434;DHT22;9344;52.294;13.626;2022-12-07T00:33:42;3.20;99.90
18434;DHT22;9344;52.294;13.626;2022-12-07T00:36:10;3.20;99.90
18434;DHT22;9344;52.294;13.626;2022-12-07T00:38:38;3.10;99.90
18434;DHT22;9344;52.294;13.626;2022-12-07T00:41:06;3.20;99.90
18434;DHT22;9344;52.294;13.626;2022-12-07T00:43:33;3.10;99.90
18434;DHT22;9344;52.294;13.626;2022-12-07T00:45:59;3.20;99.90
18434;DHT22;9344;52.294;13.626;2022-12-07T00:48:28;3.00;99.90
18434;DHT22;9344;52.294;13.626;2022-12-07T00:50:54;3.10;99.90
18434;DHT22;9344;52.294;13.626;2022-12-07T00:53:21;3.10;99.90
18434;DHT22;9344;52.294;13.626;2022-12-07T00:55:47;3.20;99.90
18434;DHT22;9344;52.294;13.626;2022-12-07T00:58:14;3.10;99.90
18434;DHT22;9344;52.294;13.626;2022-12-07T01:00:42;3.00;99.90
18434;DHT22;9344;52.294;13.626;2022-12-07T01:03:11;3.10;99.90
18434;DHT22;9344;52.294;13.626;2022-12-07T01:05:39;3.00;99.90
18434;DHT22;9344;52.294;13.626;2022-12-07T01:08:06;3.00;99.90
18434;DHT22;9344;52.294;13.626;2022-12-07T01:10:32;3.00;99.90
18434;DHT22;9344;52.294;13.626;2022-12-07T01:12:59;3.00;99.90
18434;DHT22;9344;52.294;13.626;2022-12-07T01:15:26;3.00;99.90
18434;DHT22;9344;52.294;13.626;2022-12-07T01:17:53;3.00;99.90
18434;DHT22;9344;52.294;13.626;2022-12-07T01:20:19;2.90;99.90
18434;DHT22;9344;52.294;13.626;2022-12-07T01:22:47;3.00;99.90
18434;DHT22;9344;52.294;13.626;2022-12-07T01:25:14;2.90;99.90
18434;DHT22;9344;52.294;13.626;2022-12-07T01:27:40;3.00;99.90
18434;DHT22;9344;52.294;13.626;2022-12-07T01:30:09;2.90;99.90
18434;DHT22;9344;52.294;13.626;2022-12-07T01:32:36;2.90;99.90
18434;DHT22;9344;52.294;13.626;2022-12-07T01:35:03;2.90;99.90
18434;DHT22;9344;52.294;13.626;2022-12-07T01:37:34;2.90;99.90
18434;DHT22;9344;52.294;13.626;2022-12-07T01:40:03;2.80;99.90
18434;DHT22;9344;52.294;13.626;2022-12-07T01:42:30;2.80;99.90
18434;DHT22;9344;52.294;13.626;2022-12-07T01:45:34;2.80;99.90
18434;DHT22;9344;52.294;13.626;2022-12-07T01:48:03;2.70;99.90
18434;DHT22;9344;52.294;13.626;2022-12-07T01:50:30;2.70;99.90
18434;DHT22;9344;52.294;13.626;2022-12-07T01:53:00;2.60;99.90
18434;DHT22;9344;52.294;13.626;2022-12-07T01:55:29;2.60;99.90
18434;DHT22;9344;52.294;13.626;2022-12-07T01:57:56;2.60;99.90
18434;DHT22;9344;52.294;13.626;2022-12-07T02:00:23;2.60;99.90
18434;DHT22;9344;52.294;13.626;2022-12-07T02:02:53;2.60;99.90
18434;DHT22;9344;52.294;13.626;2022-12-07T02:05:20;2.70;99.90
18434;DHT22;9344;52.294;13.626;2022-12-07T02:07:47;2.70;99.90
18434;DHT22;9344;52.294;13.626;2022-12-07T02:10:16;2.70;99.90
18434;DHT22;9344;52.294;13.626;2022-12-07T02:12:46;2.70;99.90
18434;DHT22;9344;52.294;13.626;2022-12-07T02:15:13;2.80;99.90
18434;DHT22;9344;52.294;13.626;2022-12-07T02:17:45;2.80;99.90
18434;DHT22;9344;52.294;13.626;2022-12-07T02:20:23;2.80;99.90
18434;DHT22;9344;52.294;13.626;2022-12-07T02:23:29;2.80;99.90
18434;DHT22;9344;52.294;13.626;2022-12-07T02:26:27;2.70;99.90
18434;DHT22;9344;52.294;13.626;2022-12-07T02:29:13;2.70;99.90
18434;DHT22;9344;52.294;13.626;2022-12-07T02:31:46;2.70;99.90
18434;DHT22;9344;52.294;13.626;2022-12-07T02:34:21;2.70;99.90
18434;DHT22;9344;52.294;13.626;2022-12-07T02:36:54;2.70;99.90
18434;DHT22;9344;52.294;13.626;2022-12-07T02:39:27;2.70;99.90
18434;DHT22;9344;52.294;13.626;2022-12-07T02:41:58;2.70;99.90
18434;DHT22;9344;52.294;13.626;2022-12-07T02:44:27;2.60;99.90
18434;DHT22;9344;52.294;13.626;2022-12-07T02:46:57;2.60;99.90
18434;DHT22;9344;52.294;13.626;2022-12-07T02:49:27;2.60;99.90
18434;DHT22;9344;52.294;13.626;2022-12-07T02:51:54;2.60;99.90
18434;DHT22;9344;52.294;13.626;2022-12-07T02:54:21;2.70;99.90
18434;DHT22;9344;52.294;13.626;2022-12-07T02:56:50;2.50;99.90
18434;DHT22;9344;52.294;13.626;2022-12-07T02:59:22;2.50;99.90
18434;DHT22;9344;52.294;13.626;2022-12-07T03:02:00;2.50;99.90
18434;DHT22;9344;52.294;13.626;2022-12-07T03:04:39;2.50;99.90
18434;DHT22;9344;52.294;13.626;2022-12-07T03:07:21;2.50;99.90
18434;DHT22;9344;52.294;13.626;2022-12-07T03:09:57;2.40;99.90
18434;DHT22;9344;52.294;13.626;2022-12-07T03:12:31;2.40;99.90
18434;DHT22;9344;52.294;13.626;2022-12-07T03:15:04;2.40;99.90
18434;DHT22;9344;52.294;13.626;2022-12-07T03:17:35;2.40;99.90
18434;DHT22;9344;52.294;13.626;2022-12-07T03:20:05;2.40;99.90
18434;DHT22;9344;52.294;13.626;2022-12-07T03:22:35;2.30;99.90
18434;DHT22;9344;52.294;13.626;2022-12-07T03:25:07;2.30;99.90
18434;DHT22;9344;52.294;13.626;2022-12-07T03:27:38;2.30;99.90
18434;DHT22;9344;52.294;13.626;2022-12-07T03:30:08;2.30;99.90
18434;DHT22;9344;52.294;13.626;2022-12-07T03:32:39;2.30;99.90
18434;DHT22;9344;52.294;13.626;2022-12-07T03:35:12;2.30;99.90
18434;DHT22;9344;52.294;13.626;2022-12-07T03:37:45;2.20;99.90
18434;DHT22;9344;52.294;13.626;2022-12-07T03:40:17;2.20;99.90
18434;DHT22;9344;52.294;13.626;2022-12-07T03:42:46;2.20;99.90
18434;DHT22;9344;52.294;13.626;2022-12-07T03:45:13;2.20;99.90
18434;DHT22;9344;52.294;13.626;2022-12-07T03:47:47;2.20;99.90
18434;DHT22;9344;52.294;13.626;2022-12-07T03:50:23;2.20;99.90
18434;DHT22;9344;52.294;13.626;2022-12-07T03:52:54;2.20;99.90
18434;DHT22;9344;52.294;13.626;2022-12-07T03:55:26;2.20;99.90
18434;DHT22;9344;52.294;13.626;2022-12-07T03:57:56;2.20;99.90
18434;DHT22;9344;52.294;13.626;2022-12-07T04:00:23;2.40;99.90
18434;DHT22;9344;52.294;13.626;2022-12-07T04:02:52;2.20;99.90
18434;DHT22;9344;52.294;13.626;2022-12-07T04:05:19;2.20;99.90
18434;DHT22;9344;52.294;13.626;2022-12-07T04:07:46;2.20;99.90
18434;DHT22;9344;52.294;13.626;2022-12-07T04:10:12;2.40;99.90
18434;DHT22;9344;52.294;13.626;2022-12-07T04:12:39;2.20;99.90
18434;DHT22;9344;52.294;13.626;2022-12-07T04:15:07;2.20;99.90
18434;DHT22;9344;52.294;13.626;2022-12-07T04:17:34;2.20;99.90
18434;DHT22;9344;52.294;13.626;2022-12-07T04:20:02;2.20;99.90
18434;DHT22;9344;52.294;13.626;2022-12-07T04:22:30;2.20;99.90
18434;DHT22;9344;52.294;13.626;2022-12-07T04:24:56;2.20;99.90
18434;DHT22;9344;52.294;13.626;2022-12-07T04:27:23;2.20;99.90
18434;DHT22;9344;52.294;13.626;2022-12-07T04:29:49;2.30;99.90
18434;DHT22;9344;52.294;13.626;2022-12-07T04:32:16;2.30;99.90
18434;DHT22;9344;52.294;13.626;2022-12-07T04:34:42;2.40;99.90
18434;DHT22;9344;52.294;13.626;2022-12-07T04:37:10;2.40;99.90
18434;DHT22;9344;52.294;13.626;2022-12-07T04:39:37;2.40;99.90
18434;DHT22;9344;52.294;13.626;2022-12-07T04:42:04;2.40;99.90
18434;DHT22;9344;52.294;13.626;2022-12-07T04:44:30;2.50;99.90
18434;DHT22;9344;52.294;13.626;2022-12-07T04:46:57;2.50;99.90
18434;DHT22;9344;52.294;13.626;2022-12-07T04:49:24;2.50;99.90
18434;DHT22;9344;52.294;13.626;2022-12-07T04:51:51;2.50;99.90
18434;DHT22;9344;52.294;13.626;2022-12-07T04:54:19;2.40;99.90
18434;DHT22;9344;52.294;13.626;2022-12-07T04:56:46;2.40;99.90
18434;DHT22;9344;52.294;13.626;2022-12-07T04:59:13;2.40;99.90
18434;DHT22;9344;52.294;13.626;2022-12-07T05:01:40;2.40;99.90
18434;DHT22;9344;52.294;13.626;2022-12-07T05:04:07;2.40;99.90
18434;DHT22;9344;52.294;13.626;2022-12-07T05:06:34;2.50;99.90
18434;DHT22;9344;52.294;13.626;2022-12-07T05:09:01;2.80;99.90
18434;DHT22;9344;52.294;13.626;2022-12-07T05:11:29;2.50;99.90
18434;DHT22;9344;52.294;13.626;2022-12-07T05:14:08;2.40;99.90
18434;DHT22;9344;52.294;13.626;2022-12-07T05:16:36;2.40;99.90
18434;DHT22;9344;52.294;13.626;2022-12-07T05:19:03;2.40;99.90
18434;DHT22;9344;52.294;13.626;2022-12-07T05:21:30;2.40;99.90
18434;DHT22;9344;52.294;13.626;2022-12-07T05:23:56;2.40;99.90
18434;DHT22;9344;52.294;13.626;2022-12-07T05:26:23;2.40;99.90
18434;DHT22;9344;52.294;13.626;2022-12-07T05:28:52;2.40;99.90
18434;DHT22;9344;52.294;13.626;2022-12-07T05:31:19;2.40;99.90
18434;DHT22;9344;52.294;13.626;2022-12-07T05:33:46;2.40;99.90
18434;DHT22;9344;52.294;13.626;2022-12-07T05:36:12;2.40;99.90
18434;DHT22;9344;52.294;13.626;2022-12-07T05:38:39;2.40;99.90
18434;DHT22;9344;52.294;13.626;2022-12-07T05:41:07;2.30;99.90
18434;DHT22;9344;52.294;13.626;2022-12-07T05:43:55;2.30;99.90
18434;DHT22;9344;52.294;13.626;2022-12-07T05:46:21;2.30;99.90
18434;DHT22;9344;52.294;13.626;2022-12-07T05:48:48;2.30;99.90
18434;DHT22;9344;52.294;13.626;2022-12-07T05:51:14;2.70;99.90
18434;DHT22;9344;52.294;13.626;2022-12-07T05:53:41;2.30;99.90
18434;DHT22;9344;52.294;13.626;2022-12-07T05:56:07;2.40;99.90
18434;DHT22;9344;52.294;13.626;2022-12-07T05:58:34;2.30;99.90
18434;DHT22;9344;52.294;13.626;2022-12-07T06:01:18;2.30;99.90
18434;DHT22;9344;52.294;13.626;2022-12-07T06:03:45;2.30;99.90
18434;DHT22;9344;52.294;13.626;2022-12-07T06:06:11;2.40;99.90
18434;DHT22;9344;52.294;13.626;2022-12-07T06:08:38;2.50;99.90
18434;DHT22;9344;52.294;13.626;2022-12-07T06:11:04;2.40;99.90
18434;DHT22;9344;52.294;13.626;2022-12-07T06:13:49;2.40;99.90
18434;DHT22;9344;52.294;13.626;2022-12-07T06:16:15;2.40;99.90
18434;DHT22;9344;52.294;13.626;2022-12-07T06:18:43;2.50;99.90
18434;DHT22;9344;52.294;13.626;2022-12-07T06:21:09;2.50;99.90
18434;DHT22;9344;52.294;13.626;2022-12-07T06:23:36;2.50;99.90
18434;DHT22;9344;52.294;13.626;2022-12-07T06:26:02;2.60;99.90
18434;DHT22;9344;52.294;13.626;2022-12-07T06:28:29;2.50;99.90
18434;DHT22;9344;52.294;13.626;2022-12-07T06:30:57;2.60;99.90
18434;DHT22;9344;52.294;13.626;2022-12-07T06:33:24;2.50;99.90
18434;DHT22;9344;52.294;13.626;2022-12-07T06:35:52;2.60;99.90
18434;DHT22;9344;52.294;13.626;2022-12-07T06:38:18;2.50;99.90
18434;DHT22;9344;52.294;13.626;2022-12-07T06:40:45;2.60;99.90
18434;DHT22;9344;52.294;13.626;2022-12-07T06:43:11;2.60;99.90
18434;DHT22;9344;52.294;13.626;2022-12-07T06:45:38;2.60;99.90
18434;DHT22;9344;52.294;13.626;2022-12-07T06:48:05;2.60;99.90
18434;DHT22;9344;52.294;13.626;2022-12-07T06:50:31;2.60;99.90
18434;DHT22;9344;52.294;13.626;2022-12-07T06:52:59;2.60;99.90
18434;DHT22;9344;52.294;13.626;2022-12-07T06:55:26;2.60;99.90
18434;DHT22;9344;52.294;13.626;2022-12-07T06:57:52;2.60;99.90
18434;DHT22;9344;52.294;13.626;2022-12-07T07:00:19;2.70;99.90
18434;DHT22;9344;52.294;13.626;2022-12-07T07:02:46;2.70;99.90
18434;DHT22;9344;52.294;13.626;2022-12-07T07:05:13;2.70;99.90
18434;DHT22;9344;52.294;13.626;2022-12-07T07:07:39;2.70;99.90
18434;DHT22;9344;52.294;13.626;2022-12-07T07:10:08;2.70;99.90
18434;DHT22;9344;52.294;13.626;2022-12-07T07:12:34;2.70;99.90
18434;DHT22;9344;52.294;13.626;2022-12-07T07:15:01;2.80;99.90
18434;DHT22;9344;52.294;13.626;2022-12-07T07:17:27;2.80;99.90
18434;DHT22;9344;52.294;13.626;2022-12-07T07:19:54;2.80;99.90
18434;DHT22;9344;52.294;13.626;2022-12-07T07:22:20;2.80;99.90
18434;DHT22;9344;52.294;13.626;2022-12-07T07:24:47;2.90;99.90
18434;DHT22;9344;52.294;13.626;2022-12-07T07:27:15;2.90;99.90
18434;DHT22;9344;52.294;13.626;2022-12-07T07:29:41;3.00;99.90
18434;DHT22;9344;52.294;13.626;2022-12-07T07:32:08;3.00;99.90
18434;DHT22;9344;52.294;13.626;2022-12-07T07:34:34;3.00;99.90
18434;DHT22;9344;52.294;13.626;2022-12-07T07:37:01;3.20;99.90
18434;DHT22;9344;52.294;13.626;2022-12-07T07:39:27;3.10;99.90
18434;DHT22;9344;52.294;13.626;2022-12-07T07:41:54;4.10;99.90
18434;DHT22;9344;52.294;13.626;2022-12-07T07:44:22;3.10;99.90
18434;DHT22;9344;52.294;13.626;2022-12-07T07:46:48;3.30;99.90
18434;DHT22;9344;52.294;13.626;2022-12-07T07:49:15;3.10;99.90
18434;DHT22;9344;52.294;13.626;2022-12-07T07:51:41;3.20;99.90
18434;DHT22;9344;52.294;13.626;2022-12-07T07:54:08;3.20;99.90
18434;DHT22;9344;52.294;13.626;2022-12-07T07:56:34;3.30;99.90
18434;DHT22;9344;52.294;13.626;2022-12-07T07:59:01;3.30;99.90
18434;DHT22;9344;52.294;13.626;2022-12-07T08:01:28;3.30;99.90
18434;DHT22;9344;52.294;13.626;2022-12-07T08:03:55;3.30;99.90
18434;DHT22;9344;52.294;13.626;2022-12-07T08:06:21;3.30;99.90
18434;DHT22;9344;52.294;13.626;2022-12-07T08:08:48;3.40;99.90
18434;DHT22;9344;52.294;13.626;2022-12-07T08:11:14;3.40;99.90
18434;DHT22;9344;52.294;13.626;2022-12-07T08:13:41;3.40;99.90
18434;DHT22;9344;52.294;13.626;2022-12-07T08:16:09;3.40;99.90
18434;DHT22;9344;52.294;13.626;2022-12-07T08:18:38;3.40;99.90
18434;DHT22;9344;52.294;13.626;2022-12-07T08:21:06;3.40;99.90
18434;DHT22;9344;52.294;13.626;2022-12-07T08:23:33;3.50;99.90
18434;DHT22;9344;52.294;13.626;2022-12-07T08:26:00;3.50;99.90
18434;DHT22;9344;52.294;13.626;2022-12-07T08:28:27;3.60;99.90
18434;DHT22;9344;52.294;13.626;2022-12-07T08:30:58;3.50;99.90
18434;DHT22;9344;52.294;13.626;2022-12-07T08:33:25;3.60;99.90
18434;DHT22;9344;52.294;13.626;2022-12-07T08:35:53;3.60;99.90
18434;DHT22;9344;52.294;13.626;2022-12-07T08:38:19;3.70;99.90
18434;DHT22;9344;52.294;13.626;2022-12-07T08:40:53;3.70;99.90
18434;DHT22;9344;52.294;13.626;2022-12-07T08:43:20;3.70;99.90
18434;DHT22;9344;52.294;13.626;2022-12-07T08:45:47;3.70;99.90
18434;DHT22;9344;52.294;13.626;2022-12-07T08:48:14;3.80;99.90
18434;DHT22;9344;52.294;13.626;2022-12-07T08:50:43;3.80;99.90
18434;DHT22;9344;52.294;13.626;2022-12-07T08:53:11;3.80;99.90
18434;DHT22;9344;52.294;13.626;2022-12-07T08:55:38;3.90;99.90
18434;DHT22;9344;52.294;13.626;2022-12-07T08:58:04;3.80;99.90
18434;DHT22;9344;52.294;13.626;2022-12-07T09:00:31;3.80;99.90
18434;DHT22;9344;52.294;13.626;2022-12-07T09:02:57;3.90;99.90
18434;DHT22;9344;52.294;13.626;2022-12-07T09:05:24;3.90;99.90
18434;DHT22;9344;52.294;13.626;2022-12-07T09:07:54;4.00;99.90
18434;DHT22;9344;52.294;13.626;2022-12-07T09:10:23;4.00;99.90
18434;DHT22;9344;52.294;13.626;2022-12-07T09:12:50;4.10;99.90
18434;DHT22;9344;52.294;13.626;2022-12-07T09:15:16;4.10;99.90
18434;DHT22;9344;52.294;13.626;2022-12-07T09:17:43;4.00;99.90
18434;DHT22;9344;52.294;13.626;2022-12-07T09:20:10;4.10;99.90
18434;DHT22;9344;52.294;13.626;2022-12-07T09:22:37;4.10;99.90
18434;DHT22;9344;52.294;13.626;2022-12-07T09:25:05;4.40;99.90
18434;DHT22;9344;52.294;13.626;2022-12-07T09:27:33;4.20;99.90
18434;DHT22;9344;52.294;13.626;2022-12-07T09:29:59;4.20;99.90
18434;DHT22;9344;52.294;13.626;2022-12-07T09:32:26;4.20;99.90
18434;DHT22;9344;52.294;13.626;2022-12-07T09:34:52;4.20;99.90
18434;DHT22;9344;52.294;13.626;2022-12-07T09:37:19;4.30;99.90
18434;DHT22;9344;52.294;13.626;2022-12-07T09:39:45;4.30;99.90
18434;DHT22;9344;52.294;13.626;2022-12-07T09:42:24;4.30;99.90
18434;DHT22;9344;52.294;13.626;2022-12-07T09:44:53;4.20;99.90
18434;DHT22;9344;52.294;13.626;2022-12-07T09:47:20;4.20;99.90
18434;DHT22;9344;52.294;13.626;2022-12-07T09:49:46;4.20;99.90
18434;DHT22;9344;52.294;13.626;2022-12-07T09:52:19;4.20;99.90
18434;DHT22;9344;52.294;13.626;2022-12-07T09:54:49;4.10;99.90
18434;DHT22;9344;52.294;13.626;2022-12-07T09:57:15;4.10;99.90
18434;DHT22;9344;52.294;13.626;2022-12-07T09:59:42;4.10;99.90
18434;DHT22;9344;52.294;13.626;2022-12-07T10:02:32;4.00;99.90
18434;DHT22;9344;52.294;13.626;2022-12-07T10:05:00;3.90;99.90
18434;DHT22;9344;52.294;13.626;2022-12-07T10:07:27;4.00;99.90
18434;DHT22;9344;52.294;13.626;2022-12-07T10:09:54;4.00;99.90
18434;DHT22;9344;52.294;13.626;2022-12-07T10:12:20;4.00;99.90
18434;DHT22;9344;52.294;13.626;2022-12-07T10:14:55;4.10;99.90
18434;DHT22;9344;52.294;13.626;2022-12-07T10:17:40;4.10;99.90
18434;DHT22;9344;52.294;13.626;2022-12-07T10:20:15;4.10;99.90
18434;DHT22;9344;52.294;13.626;2022-12-07T10:22:58;4.10;99.90
18434;DHT22;9344;52.294;13.626;2022-12-07T10:25:28;4.10;99.90
18434;DHT22;9344;52.294;13.626;2022-12-07T10:28:09;4.00;99.90
18434;DHT22;9344;52.294;13.626;2022-12-07T10:30:50;4.00;99.90
18434;DHT22;9344;52.294;13.626;2022-12-07T10:33:36;4.00;99.90
18434;DHT22;9344;52.294;13.626;2022-12-07T10:36:18;3.90;99.90
18434;DHT22;9344;52.294;13.626;2022-12-07T10:38:47;3.90;99.90
18434;DHT22;9344;52.294;13.626;2022-12-07T10:41:14;3.90;99.90
18434;DHT22;9344;52.294;13.626;2022-12-07T10:43:48;3.90;99.90
18434;DHT22;9344;52.294;13.626;2022-12-07T10:49:27;3.90;99.90
18434;DHT22;9344;52.294;13.626;2022-12-07T10:52:02;3.80;99.90
18434;DHT22;9344;52.294;13.626;2022-12-07T10:54:38;3.90;99.90
18434;DHT22;9344;52.294;13.626;2022-12-07T10:57:32;3.90;99.90
18434;DHT22;9344;52.294;13.626;2022-12-07T11:00:09;3.90;99.90
18434;DHT22;9344;52.294;13.626;2022-12-07T11:02:57;3.90;99.90
18434;DHT22;9344;52.294;13.626;2022-12-07T11:05:38;4.00;99.90
18434;DHT22;9344;52.294;13.626;2022-12-07T11:08:15;4.00;99.90
18434;DHT22;9344;52.294;13.626;2022-12-07T11:10:48;4.10;99.90
18434;DHT22;9344;52.294;13.626;2022-12-07T11:13:25;4.10;99.90
18434;DHT22;9344;52.294;13.626;2022-12-07T11:16:02;4.10;99.90
18434;DHT22;9344;52.294;13.626;2022-12-07T11:18:35;4.20;99.90
18434;DHT22;9344;52.294;13.626;2022-12-07T11:21:12;4.20;99.90
18434;DHT22;9344;52.294;13.626;2022-12-07T11:23:48;4.20;99.90
18434;DHT22;9344;52.294;13.626;2022-12-07T11:26:28;4.20;99.90
18434;DHT22;9344;52.294;13.626;2022-12-07T11:29:09;4.30;99.90
18434;DHT22;9344;52.294;13.626;2022-12-07T11:31:46;4.30;99.90
18434;DHT22;9344;52.294;13.626;2022-12-07T11:34:23;4.20;99.90
18434;DHT22;9344;52.294;13.626;2022-12-07T11:36:55;4.20;99.90
18434;DHT22;9344;52.294;13.626;2022-12-07T11:39:26;4.20;99.90
18434;DHT22;9344;52.294;13.626;2022-12-07T11:41:59;4.20;99.90
18434;DHT22;9344;52.294;13.626;2022-12-07T11:44:33;4.20;99.90
18434;DHT22;9344;52.294;13.626;2022-12-07T11:47:04;4.20;99.90
18434;DHT22;9344;52.294;13.626;2022-12-07T11:49:41;4.30;99.90
18434;DHT22;9344;52.294;13.626;2022-12-07T11:52:17;4.30;99.90
18434;DHT22;9344;52.294;13.626;2022-12-07T11:54:45;4.30;99.90
18434;DHT22;9344;52.294;13.626;2022-12-07T11:57:17;4.30;99.90
18434;DHT22;9344;52.294;13.626;2022-12-07T11:59:48;4.40;99.90
18434;DHT22;9344;52.294;13.626;2022-12-07T12:02:18;4.40;99.90
18434;DHT22;9344;52.294;13.626;2022-12-07T12:04:53;4.40;99.90
18434;DHT22;9344;52.294;13.626;2022-12-07T12:07:24;4.40;99.90
18434;DHT22;9344;52.294;13.626;2022-12-07T12:09:53;4.50;99.90
18434;DHT22;9344;52.294;13.626;2022-12-07T12:12:33;4.50;99.90
18434;DHT22;9344;52.294;13.626;2022-12-07T12:15:13;4.50;99.90
18434;DHT22;9344;52.294;13.626;2022-12-07T12:17:53;4.50;99.90
18434;DHT22;9344;52.294;13.626;2022-12-07T12:20:26;4.50;99.90
18434;DHT22;9344;52.294;13.626;2022-12-07T12:22:59;4.60;99.90
18434;DHT22;9344;52.294;13.626;2022-12-07T12:25:29;4.60;99.90
18434;DHT22;9344;52.294;13.626;2022-12-07T12:27:58;4.60;99.90
18434;DHT22;9344;52.294;13.626;2022-12-07T12:30:32;4.60;99.90
18434;DHT22;9344;52.294;13.626;2022-12-07T12:33:13;4.60;99.90
18434;DHT22;9344;52.294;13.626;2022-12-07T12:35:41;4.70;99.90
18434;DHT22;9344;52.294;13.626;2022-12-07T12:38:30;4.70;99.90
18434;DHT22;9344;52.294;13.626;2022-12-07T12:40:59;4.70;99.90
18434;DHT22;9344;52.294;13.626;2022-12-07T12:43:43;4.70;99.90
18434;DHT22;9344;52.294;13.626;2022-12-07T12:46:37;4.70;99.90
18434;DHT22;9344;52.294;13.626;2022-12-07T12:49:30;4.70;99.90
18434;DHT22;9344;52.294;13.626;2022-12-07T12:52:00;4.70;99.90
18434;DHT22;9344;52.294;13.626;2022-12-07T12:54:31;4.70;99.90
18434;DHT22;9344;52.294;13.626;2022-12-07T12:57:00;4.80;99.90
18434;DHT22;9344;52.294;13.626;2022-12-07T12:59:31;4.80;99.90
18434;DHT22;9344;52.294;13.626;2022-12-07T13:02:15;4.80;99.90
18434;DHT22;9344;52.294;13.626;2022-12-07T13:04:52;4.80;99.90
18434;DHT22;9344;52.294;13.626;2022-12-07T13:07:49;4.80;99.90
18434;DHT22;9344;52.294;13.626;2022-12-07T13:10:40;4.80;99.90
18434;DHT22;9344;52.294;13.626;2022-12-07T13:13:32;4.90;99.90
18434;DHT22;9344;52.294;13.626;2022-12-07T13:16:38;4.90;99.90
18434;DHT22;9344;52.294;13.626;2022-12-07T13:22:39;4.90;99.90
18434;DHT22;9344;52.294;13.626;2022-12-07T13:25:11;4.90;99.90
18434;DHT22;9344;52.294;13.626;2022-12-07T13:27:41;4.90;99.90
18434;DHT22;9344;52.294;13.626;2022-12-07T13:30:14;4.90;99.90
18434;DHT22;9344;52.294;13.626;2022-12-07T13:32:41;4.90;99.90
18434;DHT22;9344;52.294;13.626;2022-12-07T13:35:32;4.90;99.90
18434;DHT22;9344;52.294;13.626;2022-12-07T13:38:00;4.90;99.90
18434;DHT22;9344;52.294;13.626;2022-12-07T13:40:28;4.90;99.90
18434;DHT22;9344;52.294;13.626;2022-12-07T13:42:59;4.90;99.90
18434;DHT22;9344;52.294;13.626;2022-12-07T13:45:28;4.80;99.90
18434;DHT22;9344;52.294;13.626;2022-12-07T13:48:13;4.80;99.90
18434;DHT22;9344;52.294;13.626;2022-12-07T13:50:40;4.80;99.90
18434;DHT22;9344;52.294;13.626;2022-12-07T13:53:12;4.80;99.90
18434;DHT22;9344;52.294;13.626;2022-12-07T13:55:45;4.80;99.90
18434;DHT22;9344;52.294;13.626;2022-12-07T13:58:13;4.80;99.90
18434;DHT22;9344;52.294;13.626;2022-12-07T14:00:40;4.80;99.90
18434;DHT22;9344;52.294;13.626;2022-12-07T14:03:25;4.80;99.90
18434;DHT22;9344;52.294;13.626;2022-12-07T14:08:50;4.70;99.90
18434;DHT22;9344;52.294;13.626;2022-12-07T14:11:19;4.70;99.90
18434;DHT22;9344;52.294;13.626;2022-12-07T14:14:00;4.70;99.90
18434;DHT22;9344;52.294;13.626;2022-12-07T14:16:29;4.70;99.90
18434;DHT22;9344;52.294;13.626;2022-12-07T14:18:57;4.70;99.90
18434;DHT22;9344;52.294;13.626;2022-12-07T14:21:25;4.70;99.90
18434;DHT22;9344;52.294;13.626;2022-12-07T14:24:16;4.60;99.90
18434;DHT22;9344;52.294;13.626;2022-12-07T14:26:44;4.60;99.90
18434;DHT22;9344;52.294;13.626;2022-12-07T14:29:30;4.60;99.90
18434;DHT22;9344;52.294;13.626;2022-12-07T14:31:57;4.60;99.90
18434;DHT22;9344;52.294;13.626;2022-12-07T14:34:25;4.60;99.90
18434;DHT22;9344;52.294;13.626;2022-12-07T14:36:51;4.60;99.90
18434;DHT22;9344;52.294;13.626;2022-12-07T14:39:18;4.60;99.90
18434;DHT22;9344;52.294;13.626;2022-12-07T14:41:45;4.50;99.90
18434;DHT22;9344;52.294;13.626;2022-12-07T14:44:18;4.50;99.90
18434;DHT22;9344;52.294;13.626;2022-12-07T14:46:47;4.50;99.90
18434;DHT22;9344;52.294;13.626;2022-12-07T14:49:14;4.50;99.90
18434;DHT22;9344;52.294;13.626;2022-12-07T14:51:42;4.50;99.90
18434;DHT22;9344;52.294;13.626;2022-12-07T14:54:15;4.50;99.90
18434;DHT22;9344;52.294;13.626;2022-12-07T14:56:43;4.40;99.90
18434;DHT22;9344;52.294;13.626;2022-12-07T14:59:11;4.30;99.90
18434;DHT22;9344;52.294;13.626;2022-12-07T15:01:38;4.40;99.90
18434;DHT22;9344;52.294;13.626;2022-12-07T15:04:06;4.30;99.90
18434;DHT22;9344;52.294;13.626;2022-12-07T15:06:32;4.30;99.90
18434;DHT22;9344;52.294;13.626;2022-12-07T15:08:59;4.30;99.90
18434;DHT22;9344;52.294;13.626;2022-12-07T15:11:26;4.20;99.90
18434;DHT22;9344;52.294;13.626;2022-12-07T15:13:52;4.20;99.90
18434;DHT22;9344;52.294;13.626;2022-12-07T15:16:33;4.30;99.90
18434;DHT22;9344;52.294;13.626;2022-12-07T15:19:00;4.30;99.90
18434;DHT22;9344;52.294;13.626;2022-12-07T15:21:28;4.20;99.90
18434;DHT22;9344;52.294;13.626;2022-12-07T15:23:54;4.20;99.90
18434;DHT22;9344;52.294;13.626;2022-12-07T15:26:21;4.10;99.90
18434;DHT22;9344;52.294;13.626;2022-12-07T15:28:47;4.10;99.90
18434;DHT22;9344;52.294;13.626;2022-12-07T15:31:15;4.00;99.90
18434;DHT22;9344;52.294;13.626;2022-12-07T15:33:42;4.00;99.90
18434;DHT22;9344;52.294;13.626;2022-12-07T15:36:18;4.00;99.90
18434;DHT22;9344;52.294;13.626;2022-12-07T15:38:46;4.00;99.90
18434;DHT22;9344;52.294;13.626;2022-12-07T15:41:13;3.90;99.90
18434;DHT22;9344;52.294;13.626;2022-12-07T15:43:39;4.80;99.90
18434;DHT22;9344;52.294;13.626;2022-12-07T15:46:29;3.90;99.90
18434;DHT22;9344;52.294;13.626;2022-12-07T15:48:55;3.80;99.90
18434;DHT22;9344;52.294;13.626;2022-12-07T15:51:22;3.80;99.90
18434;DHT22;9344;52.294;13.626;2022-12-07T15:53:50;3.80;99.90
18434;DHT22;9344;52.294;13.626;2022-12-07T15:56:16;3.70;99.90
18434;DHT22;9344;52.294;13.626;2022-12-07T15:58:43;3.70;99.90
18434;DHT22;9344;52.294;13.626;2022-12-07T16:01:10;3.70;99.90
18434;DHT22;9344;52.294;13.626;2022-12-07T16:03:37;3.70;99.90
18434;DHT22;9344;52.294;13.626;2022-12-07T16:06:04;3.70;99.90
18434;DHT22;9344;52.294;13.626;2022-12-07T16:08:31;3.70;99.90
18434;DHT22;9344;52.294;13.626;2022-12-07T16:10:59;3.70;99.90
18434;DHT22;9344;52.294;13.626;2022-12-07T16:13:25;3.60;99.90
18434;DHT22;9344;52.294;13.626;2022-12-07T16:15:52;3.60;99.90